sensor_id;sensor_type;location;lat;lon;timestamp;temperature;humidity
47382;DHT22;33128;51.580;5.170;2023-04-03T00:01:08;5.20;99.90
47382;DHT22;33128;51.580;5.170;2023-04-03T00:03:34;4.90;99.90
47382;DHT22;33128;51.580;5.170;2023-04-03T00:06:00;5.40;99.90
47382;DHT22;33128;51.580;5.170;2023-04-03T00:08:26;5.70;99.90
47382;DHT22;33128;51.580;5.170;2023-04-03T00:10:52;5.70;99.90
47382;DHT22;33128;51.580;5.170;2023-04-03T00:13:18;5.40;99.90
47382;DHT22;33128;51.580;5.170;2023-04-03T00:15:44;5.40;99.90
47382;DHT22;33128;51.580;5.170;2023-04-03T00:18:10;5.70;99.90
47382;DHT22;33128;51.580;5.170;2023-04-03T00:20:35;5.60;99.90
47382;DHT22;33128;51.580;5.170;2023-04-03T00:23:01;5.60;99.90
47382;DHT22;33128;51.580;5.170;2023-04-03T00:25:27;5.50;99.90
47382;DHT22;33128;51.580;5.170;2023-04-03T00:27:54;5.60;99.90
47382;DHT22;33128;51.580;5.170;2023-04-03T00:30:21;5.60;99.90
47382;DHT22;33128;51.580;5.170;2023-04-03T00:32:48;5.40;99.90
47382;DHT22;33128;51.580;5.170;2023-04-03T00:35:14;5.20;99.90
47382;DHT22;33128;51.580;5.170;2023-04-03T00:37:41;4.90;99.90
47382;DHT22;33128;51.580;5.170;2023-04-03T00:40:08;5.00;99.90
47382;DHT22;33128;51.580;5.170;2023-04-03T00:42:36;5.00;99.90
47382;DHT22;33128;51.580;5.170;2023-04-03T00:47:29;5.50;99.90
47382;DHT22;33128;51.580;5.170;2023-04-03T00:49:56;5.30;99.90
47382;DHT22;33128;51.580;5.170;2023-04-03T00:52:28;5.40;99.90
47382;DHT22;33128;51.580;5.170;2023-04-03T00:54:57;5.50;99.90
47382;DHT22;33128;51.580;5.170;2023-04-03T00:57:25;5.30;99.90
47382;DHT22;33128;51.580;5.170;2023-04-03T00:59:55;5.30;99.90
47382;DHT22;33128;51.580;5.170;2023-04-03T01:02:22;5.50;99.90
47382;DHT22;33128;51.580;5.170;2023-04-03T01:04:47;5.30;99.90
47382;DHT22;33128;51.580;5.170;2023-04-03T01:07:17;5.30;99.90
47382;DHT22;33128;51.580;5.170;2023-04-03T01:09:44;5.20;99.90
47382;DHT22;33128;51.580;5.170;2023-04-03T01:12:32;4.90;99.90
47382;DHT22;33128;51.580;5.170;2023-04-03T01:15:01;5.10;99.90
47382;DHT22;33128;51.580;5.170;2023-04-03T01:17:37;5.20;99.90
47382;DHT22;33128;51.580;5.170;2023-04-03T01:25:23;5.10;99.90
47382;DHT22;33128;51.580;5.170;2023-04-03T01:27:50;5.00;99.90
47382;DHT22;33128;51.580;5.170;2023-04-03T01:30:18;4.70;99.90
47382;DHT22;33128;51.580;5.170;2023-04-03T01:32:44;4.50;99.90
47382;DHT22;33128;51.580;5.170;2023-04-03T01:35:10;4.70;99.90
47382;DHT22;33128;51.580;5.170;2023-04-03T01:37:36;4.50;99.90
47382;DHT22;33128;51.580;5.170;2023-04-03T01:40:02;4.40;99.90
47382;DHT22;33128;51.580;5.170;2023-04-03T01:42:31;4.10;99.90
47382;DHT22;33128;51.580;5.170;2023-04-03T01:44:57;4.40;99.90
47382;DHT22;33128;51.580;5.170;2023-04-03T01:47:23;4.80;99.90
47382;DHT22;33128;51.580;5.170;2023-04-03T01:49:49;4.90;99.90
47382;DHT22;33128;51.580;5.170;2023-04-03T01:52:15;4.80;99.90
47382;DHT22;33128;51.580;5.170;2023-04-03T01:54:40;4.80;99.90
47382;DHT22;33128;51.580;5.170;2023-04-03T01:57:06;4.70;99.90
47382;DHT22;33128;51.580;5.170;2023-04-03T01:59:31;4.60;99.90
47382;DHT22;33128;51.580;5.170;2023-04-03T02:01:57;4.60;99.90
47382;DHT22;33128;51.580;5.170;2023-04-03T02:04:23;4.50;99.90
47382;DHT22;33128;51.580;5.170;2023-04-03T02:06:48;4.60;99.90
47382;DHT22;33128;51.580;5.170;2023-04-03T02:09:14;4.60;99.90
47382;DHT22;33128;51.580;5.170;2023-04-03T02:11:40;4.60;99.90
47382;DHT22;33128;51.580;5.170;2023-04-03T02:14:06;4.70;99.90
47382;DHT22;33128;51.580;5.170;2023-04-03T02:16:31;4.40;99.90
47382;DHT22;33128;51.580;5.170;2023-04-03T02:18:57;4.50;99.90
47382;DHT22;33128;51.580;5.170;2023-04-03T02:21:23;4.50;99.90
47382;DHT22;33128;51.580;5.170;2023-04-03T02:23:49;4.60;99.90
47382;DHT22;33128;51.580;5.170;2023-04-03T02:26:15;4.70;99.90
47382;DHT22;33128;51.580;5.170;2023-04-03T02:28:41;4.60;99.90
47382;DHT22;33128;51.580;5.170;2023-04-03T02:31:08;4.60;99.90
47382;DHT22;33128;51.580;5.170;2023-04-03T02:33:35;4.70;99.90
47382;DHT22;33128;51.580;5.170;2023-04-03T02:36:05;4.60;99.90
47382;DHT22;33128;51.580;5.170;2023-04-03T02:38:31;4.20;99.90
47382;DHT22;33128;51.580;5.170;2023-04-03T02:41:04;4.40;99.90
47382;DHT22;33128;51.580;5.170;2023-04-03T02:43:31;4.30;99.90
47382;DHT22;33128;51.580;5.170;2023-04-03T02:45:56;4.30;99.90
47382;DHT22;33128;51.580;5.170;2023-04-03T02:48:22;4.20;99.90
47382;DHT22;33128;51.580;5.170;2023-04-03T02:50:48;4.10;99.90
47382;DHT22;33128;51.580;5.170;2023-04-03T02:53:14;4.20;99.90
47382;DHT22;33128;51.580;5.170;2023-04-03T02:55:40;4.20;99.90
47382;DHT22;33128;51.580;5.170;2023-04-03T02:58:06;4.40;99.90
47382;DHT22;33128;51.580;5.170;2023-04-03T03:00:31;4.10;99.90
47382;DHT22;33128;51.580;5.170;2023-04-03T03:02:57;3.70;99.90
47382;DHT22;33128;51.580;5.170;2023-04-03T03:05:23;3.70;99.90
47382;DHT22;33128;51.580;5.170;2023-04-03T03:07:51;3.90;99.90
47382;DHT22;33128;51.580;5.170;2023-04-03T03:10:17;4.00;99.90
47382;DHT22;33128;51.580;5.170;2023-04-03T03:12:43;4.10;99.90
47382;DHT22;33128;51.580;5.170;2023-04-03T03:15:09;4.40;99.90
47382;DHT22;33128;51.580;5.170;2023-04-03T03:17:34;4.20;99.90
47382;DHT22;33128;51.580;5.170;2023-04-03T03:20:02;4.10;99.90
47382;DHT22;33128;51.580;5.170;2023-04-03T03:22:28;4.20;99.90
47382;DHT22;33128;51.580;5.170;2023-04-03T03:24:53;4.20;99.90
47382;DHT22;33128;51.580;5.170;2023-04-03T03:27:20;4.00;99.90
47382;DHT22;33128;51.580;5.170;2023-04-03T03:29:46;3.70;99.90
47382;DHT22;33128;51.580;5.170;2023-04-03T03:32:11;3.80;99.90
47382;DHT22;33128;51.580;5.170;2023-04-03T03:34:37;3.90;99.90
47382;DHT22;33128;51.580;5.170;2023-04-03T03:37:03;4.00;99.90
47382;DHT22;33128;51.580;5.170;2023-04-03T03:39:29;4.60;99.90
47382;DHT22;33128;51.580;5.170;2023-04-03T03:41:57;3.90;99.90
47382;DHT22;33128;51.580;5.170;2023-04-03T03:44:23;3.70;99.90
47382;DHT22;33128;51.580;5.170;2023-04-03T03:46:48;3.70;99.90
47382;DHT22;33128;51.580;5.170;2023-04-03T03:49:14;3.80;99.90
47382;DHT22;33128;51.580;5.170;2023-04-03T03:51:40;3.80;99.90
47382;DHT22;33128;51.580;5.170;2023-04-03T03:54:06;3.80;99.90
47382;DHT22;33128;51.580;5.170;2023-04-03T03:56:32;3.60;99.90
47382;DHT22;33128;51.580;5.170;2023-04-03T03:58:58;3.50;99.90
47382;DHT22;33128;51.580;5.170;2023-04-03T04:01:24;3.60;99.90
47382;DHT22;33128;51.580;5.170;2023-04-03T04:03:50;3.40;99.90
47382;DHT22;33128;51.580;5.170;2023-04-03T04:06:16;3.70;99.90
47382;DHT22;33128;51.580;5.170;2023-04-03T04:08:45;3.60;99.90
47382;DHT22;33128;51.580;5.170;2023-04-03T04:11:10;3.50;99.90
47382;DHT22;33128;51.580;5.170;2023-04-03T04:13:36;3.70;99.90
47382;DHT22;33128;51.580;5.170;2023-04-03T04:16:02;3.70;99.90
47382;DHT22;33128;51.580;5.170;2023-04-03T04:18:27;3.80;99.90
47382;DHT22;33128;51.580;5.170;2023-04-03T04:20:53;3.80;99.90
47382;DHT22;33128;51.580;5.170;2023-04-03T04:23:19;3.80;99.90
47382;DHT22;33128;51.580;5.170;2023-04-03T04:25:45;3.70;99.90
47382;DHT22;33128;51.580;5.170;2023-04-03T04:28:11;3.40;99.90
47382;DHT22;33128;51.580;5.170;2023-04-03T04:30:37;3.60;99.90
47382;DHT22;33128;51.580;5.170;2023-04-03T04:33:03;3.50;99.90
47382;DHT22;33128;51.580;5.170;2023-04-03T04:35:29;3.60;99.90
47382;DHT22;33128;51.580;5.170;2023-04-03T04:37:54;3.60;99.90
47382;DHT22;33128;51.580;5.170;2023-04-03T04:40:20;3.50;99.90
47382;DHT22;33128;51.580;5.170;2023-04-03T04:42:46;3.20;99.90
47382;DHT22;33128;51.580;5.170;2023-04-03T04:45:12;3.30;99.90
47382;DHT22;33128;51.580;5.170;2023-04-03T04:47:38;3.20;99.90
47382;DHT22;33128;51.580;5.170;2023-04-03T04:50:04;3.30;99.90
47382;DHT22;33128;51.580;5.170;2023-04-03T04:52:29;3.30;99.90
47382;DHT22;33128;51.580;5.170;2023-04-03T04:54:55;3.30;99.90
47382;DHT22;33128;51.580;5.170;2023-04-03T04:57:21;3.40;99.90
47382;DHT22;33128;51.580;5.170;2023-04-03T04:59:49;3.10;99.90
47382;DHT22;33128;51.580;5.170;2023-04-03T05:02:15;3.20;99.90
47382;DHT22;33128;51.580;5.170;2023-04-03T05:04:41;3.30;99.90
47382;DHT22;33128;51.580;5.170;2023-04-03T05:07:06;3.10;99.90
47382;DHT22;33128;51.580;5.170;2023-04-03T05:09:32;3.00;99.90
47382;DHT22;33128;51.580;5.170;2023-04-03T05:11:58;3.00;99.90
47382;DHT22;33128;51.580;5.170;2023-04-03T05:14:23;2.90;99.90
47382;DHT22;33128;51.580;5.170;2023-04-03T05:16:49;2.90;99.90
47382;DHT22;33128;51.580;5.170;2023-04-03T05:19:20;2.90;99.90
47382;DHT22;33128;51.580;5.170;2023-04-03T05:21:46;3.00;99.90
47382;DHT22;33128;51.580;5.170;2023-04-03T05:24:12;2.90;99.90
47382;DHT22;33128;51.580;5.170;2023-04-03T05:26:37;2.90;99.90
47382;DHT22;33128;51.580;5.170;2023-04-03T05:29:03;2.90;99.90
47382;DHT22;33128;51.580;5.170;2023-04-03T05:31:29;2.90;99.90
47382;DHT22;33128;51.580;5.170;2023-04-03T05:33:55;3.00;99.90
47382;DHT22;33128;51.580;5.170;2023-04-03T05:36:21;3.00;99.90
47382;DHT22;33128;51.580;5.170;2023-04-03T05:38:47;3.20;99.90
47382;DHT22;33128;51.580;5.170;2023-04-03T05:41:14;3.00;99.90
47382;DHT22;33128;51.580;5.170;2023-04-03T05:43:40;3.00;99.90
47382;DHT22;33128;51.580;5.170;2023-04-03T05:46:11;3.00;99.90
47382;DHT22;33128;51.580;5.170;2023-04-03T05:48:37;2.80;99.90
47382;DHT22;33128;51.580;5.170;2023-04-03T05:51:03;3.30;99.90
47382;DHT22;33128;51.580;5.170;2023-04-03T05:53:31;4.80;99.90
47382;DHT22;33128;51.580;5.170;2023-04-03T05:55:58;4.10;99.90
47382;DHT22;33128;51.580;5.170;2023-04-03T05:58:24;3.60;99.90
47382;DHT22;33128;51.580;5.170;2023-04-03T06:00:49;3.30;99.90
47382;DHT22;33128;51.580;5.170;2023-04-03T06:03:15;3.40;99.90
47382;DHT22;33128;51.580;5.170;2023-04-03T06:05:41;3.40;99.90
47382;DHT22;33128;51.580;5.170;2023-04-03T06:08:07;3.40;99.90
47382;DHT22;33128;51.580;5.170;2023-04-03T06:10:34;3.40;99.90
47382;DHT22;33128;51.580;5.170;2023-04-03T06:13:00;3.40;99.90
47382;DHT22;33128;51.580;5.170;2023-04-03T06:15:26;3.50;99.90
47382;DHT22;33128;51.580;5.170;2023-04-03T06:17:52;3.40;99.90
47382;DHT22;33128;51.580;5.170;2023-04-03T06:20:18;3.50;99.90
47382;DHT22;33128;51.580;5.170;2023-04-03T06:22:43;3.50;99.90
47382;DHT22;33128;51.580;5.170;2023-04-03T06:25:09;3.60;99.90
47382;DHT22;33128;51.580;5.170;2023-04-03T06:27:35;3.60;99.90
47382;DHT22;33128;51.580;5.170;2023-04-03T06:30:01;3.60;99.90
47382;DHT22;33128;51.580;5.170;2023-04-03T06:32:26;3.70;99.90
47382;DHT22;33128;51.580;5.170;2023-04-03T06:34:52;3.90;99.90
47382;DHT22;33128;51.580;5.170;2023-04-03T06:37:21;3.90;99.90
47382;DHT22;33128;51.580;5.170;2023-04-03T06:39:47;3.90;99.90
47382;DHT22;33128;51.580;5.170;2023-04-03T06:42:12;3.90;99.90
47382;DHT22;33128;51.580;5.170;2023-04-03T06:44:38;3.90;99.90
47382;DHT22;33128;51.580;5.170;2023-04-03T06:47:04;4.00;99.90
47382;DHT22;33128;51.580;5.170;2023-04-03T06:49:30;4.10;99.90
47382;DHT22;33128;51.580;5.170;2023-04-03T06:51:56;4.20;99.90
47382;DHT22;33128;51.580;5.170;2023-04-03T06:54:22;4.20;99.90
47382;DHT22;33128;51.580;5.170;2023-04-03T06:56:47;4.30;99.90
47382;DHT22;33128;51.580;5.170;2023-04-03T06:59:13;4.30;99.90
47382;DHT22;33128;51.580;5.170;2023-04-03T07:01:40;4.40;99.90
47382;DHT22;33128;51.580;5.170;2023-04-03T07:04:06;4.40;99.90
47382;DHT22;33128;51.580;5.170;2023-04-03T07:06:33;4.50;99.90
47382;DHT22;33128;51.580;5.170;2023-04-03T07:08:59;4.60;99.90
47382;DHT22;33128;51.580;5.170;2023-04-03T07:11:26;4.70;99.90
47382;DHT22;33128;51.580;5.170;2023-04-03T07:13:52;4.60;99.90
47382;DHT22;33128;51.580;5.170;2023-04-03T07:16:18;4.80;99.90
47382;DHT22;33128;51.580;5.170;2023-04-03T07:18:44;4.90;99.90
47382;DHT22;33128;51.580;5.170;2023-04-03T07:21:10;4.90;99.90
47382;DHT22;33128;51.580;5.170;2023-04-03T07:23:36;5.00;99.90
47382;DHT22;33128;51.580;5.170;2023-04-03T07:26:02;4.90;99.90
47382;DHT22;33128;51.580;5.170;2023-04-03T07:28:28;5.10;99.90
47382;DHT22;33128;51.580;5.170;2023-04-03T07:31:01;5.10;99.90
47382;DHT22;33128;51.580;5.170;2023-04-03T07:33:27;5.10;99.90
47382;DHT22;33128;51.580;5.170;2023-04-03T07:35:53;5.30;99.90
47382;DHT22;33128;51.580;5.170;2023-04-03T07:38:19;5.30;99.90
47382;DHT22;33128;51.580;5.170;2023-04-03T07:40:48;5.30;99.90
47382;DHT22;33128;51.580;5.170;2023-04-03T07:43:16;5.50;99.90
47382;DHT22;33128;51.580;5.170;2023-04-03T07:45:42;5.50;99.90
47382;DHT22;33128;51.580;5.170;2023-04-03T07:48:09;5.40;99.90
47382;DHT22;33128;51.580;5.170;2023-04-03T07:50:35;5.60;99.90
47382;DHT22;33128;51.580;5.170;2023-04-03T07:53:02;5.70;99.90
47382;DHT22;33128;51.580;5.170;2023-04-03T07:55:28;5.80;99.90
47382;DHT22;33128;51.580;5.170;2023-04-03T07:57:54;5.80;99.90
47382;DHT22;33128;51.580;5.170;2023-04-03T08:00:20;5.80;99.90
47382;DHT22;33128;51.580;5.170;2023-04-03T08:02:46;5.90;99.90
47382;DHT22;33128;51.580;5.170;2023-04-03T08:05:18;5.90;99.90
47382;DHT22;33128;51.580;5.170;2023-04-03T08:07:44;6.10;99.90
47382;DHT22;33128;51.580;5.170;2023-04-03T08:10:10;6.20;99.90
47382;DHT22;33128;51.580;5.170;2023-04-03T08:12:36;6.20;99.90
47382;DHT22;33128;51.580;5.170;2023-04-03T08:15:03;6.20;99.90
47382;DHT22;33128;51.580;5.170;2023-04-03T08:17:29;6.40;99.90
47382;DHT22;33128;51.580;5.170;2023-04-03T08:19:55;6.40;99.90
47382;DHT22;33128;51.580;5.170;2023-04-03T08:22:20;6.40;99.90
47382;DHT22;33128;51.580;5.170;2023-04-03T08:24:46;6.50;99.90
47382;DHT22;33128;51.580;5.170;2023-04-03T08:27:12;6.60;99.90
47382;DHT22;33128;51.580;5.170;2023-04-03T08:29:40;6.50;99.90
47382;DHT22;33128;51.580;5.170;2023-04-03T08:32:06;6.60;99.90
47382;DHT22;33128;51.580;5.170;2023-04-03T08:34:31;6.70;99.90
47382;DHT22;33128;51.580;5.170;2023-04-03T08:37:00;6.70;99.90
47382;DHT22;33128;51.580;5.170;2023-04-03T08:39:26;6.80;99.90
47382;DHT22;33128;51.580;5.170;2023-04-03T08:41:55;6.90;99.90
47382;DHT22;33128;51.580;5.170;2023-04-03T08:44:42;7.00;99.90
47382;DHT22;33128;51.580;5.170;2023-04-03T08:47:41;6.90;99.90
47382;DHT22;33128;51.580;5.170;2023-04-03T08:50:14;7.10;99.90
47382;DHT22;33128;51.580;5.170;2023-04-03T08:52:52;7.20;99.90
47382;DHT22;33128;51.580;5.170;2023-04-03T08:55:31;7.20;99.90
47382;DHT22;33128;51.580;5.170;2023-04-03T08:58:05;7.30;99.90
47382;DHT22;33128;51.580;5.170;2023-04-03T09:01:00;7.40;99.90
47382;DHT22;33128;51.580;5.170;2023-04-03T09:03:30;7.50;99.90
47382;DHT22;33128;51.580;5.170;2023-04-03T09:06:14;7.60;99.90
47382;DHT22;33128;51.580;5.170;2023-04-03T09:12:00;7.70;99.90
47382;DHT22;33128;51.580;5.170;2023-04-03T09:22:46;8.00;99.90
47382;DHT22;33128;51.580;5.170;2023-04-03T09:25:31;8.10;99.90
47382;DHT22;33128;51.580;5.170;2023-04-03T09:28:00;8.20;99.90
47382;DHT22;33128;51.580;5.170;2023-04-03T09:30:27;8.20;99.80
47382;DHT22;33128;51.580;5.170;2023-04-03T09:32:55;8.50;99.90
47382;DHT22;33128;51.580;5.170;2023-04-03T09:35:26;9.90;99.90
47382;DHT22;33128;51.580;5.170;2023-04-03T09:37:54;10.80;99.90
47382;DHT22;33128;51.580;5.170;2023-04-03T09:40:30;11.20;99.90
47382;DHT22;33128;51.580;5.170;2023-04-03T09:43:02;11.40;99.90
47382;DHT22;33128;51.580;5.170;2023-04-03T09:45:32;11.60;99.90
47382;DHT22;33128;51.580;5.170;2023-04-03T09:48:19;11.70;99.90
47382;DHT22;33128;51.580;5.170;2023-04-03T09:53:40;11.90;99.90
47382;DHT22;33128;51.580;5.170;2023-04-03T09:56:19;12.00;99.90
47382;DHT22;33128;51.580;5.170;2023-04-03T10:01:36;12.00;99.90
47382;DHT22;33128;51.580;5.170;2023-04-03T10:04:06;12.00;99.90
47382;DHT22;33128;51.580;5.170;2023-04-03T10:06:36;12.10;99.90
47382;DHT22;33128;51.580;5.170;2023-04-03T10:14:27;13.40;98.60
47382;DHT22;33128;51.580;5.170;2023-04-03T10:19:41;9.50;92.10
47382;DHT22;33128;51.580;5.170;2023-04-03T10:22:26;9.50;92.60
47382;DHT22;33128;51.580;5.170;2023-04-03T10:28:03;9.60;91.40
47382;DHT22;33128;51.580;5.170;2023-04-03T10:36:02;9.80;89.70
47382;DHT22;33128;51.580;5.170;2023-04-03T10:41:51;10.00;90.30
47382;DHT22;33128;51.580;5.170;2023-04-03T10:47:30;10.30;90.30
47382;DHT22;33128;51.580;5.170;2023-04-03T10:50:26;10.50;90.30
47382;DHT22;33128;51.580;5.170;2023-04-03T10:58:44;10.70;81.10
47382;DHT22;33128;51.580;5.170;2023-04-03T11:01:15;10.90;82.00
47382;DHT22;33128;51.580;5.170;2023-04-03T11:03:49;11.00;79.90
47382;DHT22;33128;51.580;5.170;2023-04-03T11:06:21;11.70;81.80
47382;DHT22;33128;51.580;5.170;2023-04-03T11:09:02;12.70;79.90
47382;DHT22;33128;51.580;5.170;2023-04-03T11:11:33;13.30;74.80
47382;DHT22;33128;51.580;5.170;2023-04-03T11:14:14;13.50;72.80
47382;DHT22;33128;51.580;5.170;2023-04-03T11:16:53;14.60;69.80
47382;DHT22;33128;51.580;5.170;2023-04-03T11:19:44;15.20;69.90
47382;DHT22;33128;51.580;5.170;2023-04-03T11:22:22;15.80;66.20
47382;DHT22;33128;51.580;5.170;2023-04-03T11:25:14;15.60;65.10
47382;DHT22;33128;51.580;5.170;2023-04-03T11:30:19;16.20;62.90
47382;DHT22;33128;51.580;5.170;2023-04-03T11:35:35;15.30;62.40
47382;DHT22;33128;51.580;5.170;2023-04-03T11:38:04;16.40;64.90
47382;DHT22;33128;51.580;5.170;2023-04-03T11:40:33;16.60;66.30
47382;DHT22;33128;51.580;5.170;2023-04-03T11:45:50;16.40;63.50
47382;DHT22;33128;51.580;5.170;2023-04-03T11:50:54;16.80;62.20
47382;DHT22;33128;51.580;5.170;2023-04-03T11:53:37;16.80;62.60
47382;DHT22;33128;51.580;5.170;2023-04-03T11:59:16;16.30;60.70
47382;DHT22;33128;51.580;5.170;2023-04-03T12:01:56;16.40;60.60
47382;DHT22;33128;51.580;5.170;2023-04-03T12:04:25;16.00;61.30
47382;DHT22;33128;51.580;5.170;2023-04-03T12:07:11;16.70;59.80
47382;DHT22;33128;51.580;5.170;2023-04-03T12:14:54;16.00;64.00
47382;DHT22;33128;51.580;5.170;2023-04-03T12:17:23;16.50;61.70
47382;DHT22;33128;51.580;5.170;2023-04-03T12:19:51;17.80;60.40
47382;DHT22;33128;51.580;5.170;2023-04-03T12:22:19;16.90;65.60
47382;DHT22;33128;51.580;5.170;2023-04-03T12:24:48;16.90;69.10
47382;DHT22;33128;51.580;5.170;2023-04-03T12:29:56;16.90;67.20
47382;DHT22;33128;51.580;5.170;2023-04-03T12:35:28;16.80;65.00
47382;DHT22;33128;51.580;5.170;2023-04-03T12:41:30;17.00;68.50
47382;DHT22;33128;51.580;5.170;2023-04-03T12:44:16;18.10;62.10
47382;DHT22;33128;51.580;5.170;2023-04-03T12:46:48;17.70;64.30
47382;DHT22;33128;51.580;5.170;2023-04-03T12:51:58;17.00;60.30
47382;DHT22;33128;51.580;5.170;2023-04-03T12:57:27;18.50;62.10
47382;DHT22;33128;51.580;5.170;2023-04-03T12:59:55;18.70;62.30
47382;DHT22;33128;51.580;5.170;2023-04-03T13:02:31;18.90;63.50
47382;DHT22;33128;51.580;5.170;2023-04-03T13:05:06;17.80;62.40
47382;DHT22;33128;51.580;5.170;2023-04-03T13:07:34;17.80;63.60
47382;DHT22;33128;51.580;5.170;2023-04-03T13:12:34;17.60;69.30
47382;DHT22;33128;51.580;5.170;2023-04-03T13:15:15;17.10;70.00
47382;DHT22;33128;51.580;5.170;2023-04-03T13:17:42;17.40;67.80
47382;DHT22;33128;51.580;5.170;2023-04-03T13:20:30;17.00;74.00
47382;DHT22;33128;51.580;5.170;2023-04-03T13:23:01;16.90;69.90
47382;DHT22;33128;51.580;5.170;2023-04-03T13:25:31;17.50;72.50
47382;DHT22;33128;51.580;5.170;2023-04-03T13:28:03;17.80;67.50
47382;DHT22;33128;51.580;5.170;2023-04-03T13:30:32;17.30;69.10
47382;DHT22;33128;51.580;5.170;2023-04-03T13:33:01;17.20;68.80
47382;DHT22;33128;51.580;5.170;2023-04-03T13:35:40;17.10;70.20
47382;DHT22;33128;51.580;5.170;2023-04-03T13:38:29;17.60;68.50
47382;DHT22;33128;51.580;5.170;2023-04-03T13:41:02;17.10;65.50
47382;DHT22;33128;51.580;5.170;2023-04-03T13:43:31;17.50;63.90
47382;DHT22;33128;51.580;5.170;2023-04-03T13:46:04;17.10;64.50
47382;DHT22;33128;51.580;5.170;2023-04-03T13:48:43;17.40;66.00
47382;DHT22;33128;51.580;5.170;2023-04-03T13:53:59;17.50;65.80
47382;DHT22;33128;51.580;5.170;2023-04-03T13:56:30;17.80;70.20
47382;DHT22;33128;51.580;5.170;2023-04-03T13:59:04;18.10;69.20
47382;DHT22;33128;51.580;5.170;2023-04-03T14:01:49;17.70;72.80
47382;DHT22;33128;51.580;5.170;2023-04-03T14:04:21;17.10;68.50
47382;DHT22;33128;51.580;5.170;2023-04-03T14:06:48;17.00;68.50
47382;DHT22;33128;51.580;5.170;2023-04-03T14:09:15;17.50;66.60
47382;DHT22;33128;51.580;5.170;2023-04-03T14:11:42;17.40;71.00
47382;DHT22;33128;51.580;5.170;2023-04-03T14:14:36;17.50;73.00
47382;DHT22;33128;51.580;5.170;2023-04-03T14:17:03;17.20;73.00
47382;DHT22;33128;51.580;5.170;2023-04-03T14:19:35;17.00;77.70
47382;DHT22;33128;51.580;5.170;2023-04-03T14:22:15;17.10;76.50
47382;DHT22;33128;51.580;5.170;2023-04-03T14:24:41;17.70;73.70
47382;DHT22;33128;51.580;5.170;2023-04-03T14:27:34;17.10;76.80
47382;DHT22;33128;51.580;5.170;2023-04-03T14:30:00;17.10;72.90
47382;DHT22;33128;51.580;5.170;2023-04-03T14:32:28;17.50;75.00
47382;DHT22;33128;51.580;5.170;2023-04-03T14:34:54;17.90;72.20
47382;DHT22;33128;51.580;5.170;2023-04-03T14:37:26;17.00;72.70
47382;DHT22;33128;51.580;5.170;2023-04-03T14:39:54;18.20;76.90
47382;DHT22;33128;51.580;5.170;2023-04-03T14:42:26;18.20;71.30
47382;DHT22;33128;51.580;5.170;2023-04-03T14:44:52;17.50;74.30
47382;DHT22;33128;51.580;5.170;2023-04-03T14:47:25;16.50;74.50
47382;DHT22;33128;51.580;5.170;2023-04-03T14:49:51;17.20;78.00
47382;DHT22;33128;51.580;5.170;2023-04-03T14:52:26;17.20;74.40
47382;DHT22;33128;51.580;5.170;2023-04-03T14:54:53;16.50;76.90
47382;DHT22;33128;51.580;5.170;2023-04-03T14:57:19;17.00;80.40
47382;DHT22;33128;51.580;5.170;2023-04-03T14:59:46;17.20;78.40
47382;DHT22;33128;51.580;5.170;2023-04-03T15:04:49;17.00;77.50
47382;DHT22;33128;51.580;5.170;2023-04-03T15:07:15;17.60;75.40
47382;DHT22;33128;51.580;5.170;2023-04-03T15:09:41;16.60;72.60
47382;DHT22;33128;51.580;5.170;2023-04-03T15:12:08;16.80;76.40
47382;DHT22;33128;51.580;5.170;2023-04-03T15:14:34;16.60;74.40
47382;DHT22;33128;51.580;5.170;2023-04-03T15:17:00;16.00;74.80
47382;DHT22;33128;51.580;5.170;2023-04-03T15:19:25;17.00;79.00
47382;DHT22;33128;51.580;5.170;2023-04-03T15:21:51;16.80;75.50
47382;DHT22;33128;51.580;5.170;2023-04-03T15:24:17;17.60;78.90
47382;DHT22;33128;51.580;5.170;2023-04-03T15:26:42;17.10;76.60
47382;DHT22;33128;51.580;5.170;2023-04-03T15:29:08;17.40;80.80
47382;DHT22;33128;51.580;5.170;2023-04-03T15:31:34;17.60;77.40
47382;DHT22;33128;51.580;5.170;2023-04-03T15:34:00;18.10;78.20
47382;DHT22;33128;51.580;5.170;2023-04-03T15:36:25;17.50;76.00
47382;DHT22;33128;51.580;5.170;2023-04-03T15:38:51;17.10;76.30
47382;DHT22;33128;51.580;5.170;2023-04-03T15:41:17;16.80;75.80
47382;DHT22;33128;51.580;5.170;2023-04-03T15:43:42;16.70;76.60
47382;DHT22;33128;51.580;5.170;2023-04-03T15:46:08;16.50;74.10
47382;DHT22;33128;51.580;5.170;2023-04-03T15:48:36;16.90;76.20
47382;DHT22;33128;51.580;5.170;2023-04-03T15:51:01;16.70;74.60
47382;DHT22;33128;51.580;5.170;2023-04-03T15:53:27;15.60;72.80
47382;DHT22;33128;51.580;5.170;2023-04-03T15:55:53;17.30;80.30
47382;DHT22;33128;51.580;5.170;2023-04-03T15:58:18;16.70;74.50
47382;DHT22;33128;51.580;5.170;2023-04-03T16:00:44;16.60;76.30
47382;DHT22;33128;51.580;5.170;2023-04-03T16:03:17;16.70;79.30
47382;DHT22;33128;51.580;5.170;2023-04-03T16:05:43;17.20;78.10
47382;DHT22;33128;51.580;5.170;2023-04-03T16:08:09;17.00;76.90
47382;DHT22;33128;51.580;5.170;2023-04-03T16:10:36;17.60;78.70
47382;DHT22;33128;51.580;5.170;2023-04-03T16:13:03;16.70;79.50
47382;DHT22;33128;51.580;5.170;2023-04-03T16:15:29;16.90;74.40
47382;DHT22;33128;51.580;5.170;2023-04-03T16:17:59;16.60;75.60
47382;DHT22;33128;51.580;5.170;2023-04-03T16:20:25;16.40;77.10
47382;DHT22;33128;51.580;5.170;2023-04-03T16:22:51;16.70;76.00
47382;DHT22;33128;51.580;5.170;2023-04-03T16:25:17;17.10;78.10
47382;DHT22;33128;51.580;5.170;2023-04-03T16:27:43;17.20;74.90
47382;DHT22;33128;51.580;5.170;2023-04-03T16:30:09;17.40;75.20
47382;DHT22;33128;51.580;5.170;2023-04-03T16:32:36;17.30;80.00
47382;DHT22;33128;51.580;5.170;2023-04-03T16:35:03;16.80;74.20
47382;DHT22;33128;51.580;5.170;2023-04-03T16:37:29;16.70;77.80
47382;DHT22;33128;51.580;5.170;2023-04-03T16:39:54;17.00;79.50
47382;DHT22;33128;51.580;5.170;2023-04-03T16:42:20;16.30;75.60
47382;DHT22;33128;51.580;5.170;2023-04-03T16:44:46;16.00;76.10
47382;DHT22;33128;51.580;5.170;2023-04-03T16:47:11;16.50;74.20
47382;DHT22;33128;51.580;5.170;2023-04-03T16:49:39;16.60;75.70
47382;DHT22;33128;51.580;5.170;2023-04-03T16:52:05;15.90;76.60
47382;DHT22;33128;51.580;5.170;2023-04-03T16:54:31;15.80;75.40
47382;DHT22;33128;51.580;5.170;2023-04-03T16:56:57;15.90;75.70
47382;DHT22;33128;51.580;5.170;2023-04-03T16:59:23;15.50;80.40
47382;DHT22;33128;51.580;5.170;2023-04-03T17:01:49;15.30;81.50
47382;DHT22;33128;51.580;5.170;2023-04-03T17:04:15;15.70;76.80
47382;DHT22;33128;51.580;5.170;2023-04-03T17:06:41;16.60;78.30
47382;DHT22;33128;51.580;5.170;2023-04-03T17:09:07;15.80;79.70
47382;DHT22;33128;51.580;5.170;2023-04-03T17:11:34;15.00;75.00
47382;DHT22;33128;51.580;5.170;2023-04-03T17:14:00;14.60;80.00
47382;DHT22;33128;51.580;5.170;2023-04-03T17:16:26;14.60;79.30
47382;DHT22;33128;51.580;5.170;2023-04-03T17:18:52;14.30;78.00
47382;DHT22;33128;51.580;5.170;2023-04-03T17:21:19;14.30;81.60
47382;DHT22;33128;51.580;5.170;2023-04-03T17:23:52;14.10;80.60